Sun Globe — 9HA2857 — position and weather

sailwx.info

Track history (hours):
 
Tides and Currents Weather Stations Pressure Air Temp Water Temp Dewpoint Dewpoint Depression Visibility Wind Speed Wind Dir Waves Ship Positions

Sun Globe

Last reported at 2015-Mar-27 23:26 UTC. Time now 2015-Apr-21 11:37 UTC.
Position N 01°54' E 102°21'.
Warning: this ship's position is 24 days out of date.

Length 190 m; draft 12.9 m.

Type: Cargo ship. MMSI: 256415000.

Date/timePositionNaut miles runAvg speedWind from/ knotsBaromVisibWave heightAir tempDewpointWater temp
2015-Mar-27 23:26N 01°54' E 102°21'1213.0
2015-Mar-27 22:33N 01°50' E 102°32'1312.9
2015-Mar-27 21:33N 01°45' E 102°43'7511.9
2015-Mar-27 15:12N 01°12' E 103°51'710.7
2015-Mar-27 14:33N 01°15' E 103°58'3 1.9
2015-Mar-27 13:04N 01°17' E 103°60'0 0.0
2015-Mar-27 11:31N 01°17' E 103°60'0 0.0
2015-Mar-27 10:28N 01°17' E 103°60'0 0.1
2015-Mar-27 09:28N 01°17' E 103°59'0 0.0
2015-Mar-27 08:31N 01°17' E 103°59'0 0.1
2015-Mar-27 07:28N 01°17' E 103°60'0 0.0
2015-Mar-27 06:22N 01°17' E 103°60'0 0.0
2015-Mar-27 05:28N 01°17' E 103°60'0 0.1
2015-Mar-27 04:28N 01°17' E 103°60'0 0.2
2015-Mar-27 03:33N 01°17' E 103°60'0 0.0
2015-Mar-27 02:33N 01°17' E 103°60'0 0.0
2015-Mar-27 01:33N 01°17' E 103°60'0 0.0
2015-Mar-27 00:33N 01°17' E 103°60'0 0.0
2015-Mar-26 23:33N 01°17' E 103°60'0 0.0
2015-Mar-26 22:33N 01°17' E 103°60'0 0.0
2015-Mar-26 21:33N 01°17' E 103°60'0 0.2
2015-Mar-26 20:33N 01°17' E 103°60'0 0.0
2015-Mar-26 19:33N 01°17' E 103°60'0 0.0
2015-Mar-26 18:33N 01°17' E 103°60'1 1.2
2015-Mar-26 17:33N 01°17' E 103°58'3 2.5
2015-Mar-26 16:33N 01°15' E 104°00'11 8.7
2015-Mar-26 15:17N 01°17' E 104°11'  
2015-Mar-21 03:16N 23°37' E 118°19'  
Track history (hours):
 
Tides and Currents Weather Stations Pressure Air Temp Water Temp Dewpoint Dewpoint Depression Visibility Wind Speed Wind Dir Waves Ship Positions

Sun Globe

Last reported at 2015-Mar-27 23:26 UTC. Time now 2015-Apr-21 11:37 UTC.
Position N 01°54' E 102°21'.
Warning: this ship's position is 24 days out of date.

Length 190 m; draft 12.9 m.

Type: Cargo ship. MMSI: 256415000.

Date/timePositionNaut miles runAvg speedWind from/ knotsBaromVisibWave heightAir tempDewpointWater temp
2015-Mar-27 23:26N 01°54' E 102°21'1213.0
2015-Mar-27 22:33N 01°50' E 102°32'1312.9
2015-Mar-27 21:33N 01°45' E 102°43'7511.9
2015-Mar-27 15:12N 01°12' E 103°51'710.7
2015-Mar-27 14:33N 01°15' E 103°58'3 1.9
2015-Mar-27 13:04N 01°17' E 103°60'0 0.0
2015-Mar-27 11:31N 01°17' E 103°60'0 0.0
2015-Mar-27 10:28N 01°17' E 103°60'0 0.1
2015-Mar-27 09:28N 01°17' E 103°59'0 0.0
2015-Mar-27 08:31N 01°17' E 103°59'0 0.1
2015-Mar-27 07:28N 01°17' E 103°60'0 0.0
2015-Mar-27 06:22N 01°17' E 103°60'0 0.0
2015-Mar-27 05:28N 01°17' E 103°60'0 0.1
2015-Mar-27 04:28N 01°17' E 103°60'0 0.2
2015-Mar-27 03:33N 01°17' E 103°60'0 0.0
2015-Mar-27 02:33N 01°17' E 103°60'0 0.0
2015-Mar-27 01:33N 01°17' E 103°60'0 0.0
2015-Mar-27 00:33N 01°17' E 103°60'0 0.0
2015-Mar-26 23:33N 01°17' E 103°60'0 0.0
2015-Mar-26 22:33N 01°17' E 103°60'0 0.0
2015-Mar-26 21:33N 01°17' E 103°60'0 0.2
2015-Mar-26 20:33N 01°17' E 103°60'0 0.0
2015-Mar-26 19:33N 01°17' E 103°60'0 0.0
2015-Mar-26 18:33N 01°17' E 103°60'1 1.2
2015-Mar-26 17:33N 01°17' E 103°58'3 2.5
2015-Mar-26 16:33N 01°15' E 104°00'11 8.7
2015-Mar-26 15:17N 01°17' E 104°11'  
2015-Mar-21 03:16N 23°37' E 118°19'  

Dump ship's entire track history